sensor_id;sensor_type;location;lat;lon;timestamp;P1;durP1;ratioP1;P2;durP2;ratioP2
45863;SDS011;31579;52.354;16.974;2023-04-08T00:01:31;32.60;;;15.10;;
45863;SDS011;31579;52.354;16.974;2023-04-08T00:04:07;32.60;;;15.10;;
45863;SDS011;31579;52.354;16.974;2023-04-08T00:09:05;32.60;;;16.30;;
45863;SDS011;31579;52.354;16.974;2023-04-08T00:14:05;32.60;;;16.30;;
45863;SDS011;31579;52.354;16.974;2023-04-08T00:18:19;30.30;;;15.80;;
45863;SDS011;31579;52.354;16.974;2023-04-08T00:23:17;30.30;;;15.80;;
45863;SDS011;31579;52.354;16.974;2023-04-08T00:30:58;29.90;;;15.10;;
45863;SDS011;31579;52.354;16.974;2023-04-08T00:35:58;29.90;;;15.10;;
45863;SDS011;31579;52.354;16.974;2023-04-08T00:41:09;26.50;;;14.80;;
45863;SDS011;31579;52.354;16.974;2023-04-08T00:46:08;26.50;;;14.80;;
45863;SDS011;31579;52.354;16.974;2023-04-08T00:51:07;31.90;;;15.80;;
45863;SDS011;31579;52.354;16.974;2023-04-08T00:56:08;31.90;;;15.80;;
45863;SDS011;31579;52.354;16.974;2023-04-08T01:01:11;34.30;;;15.40;;
45863;SDS011;31579;52.354;16.974;2023-04-08T01:11:09;35.20;;;16.40;;
45863;SDS011;31579;52.354;16.974;2023-04-08T01:16:09;35.20;;;16.40;;
45863;SDS011;31579;52.354;16.974;2023-04-08T01:21:07;33.10;;;16.80;;
45863;SDS011;31579;52.354;16.974;2023-04-08T01:26:09;33.10;;;16.80;;
45863;SDS011;31579;52.354;16.974;2023-04-08T01:31:08;37.30;;;17.60;;
45863;SDS011;31579;52.354;16.974;2023-04-08T01:36:07;37.30;;;17.60;;
45863;SDS011;31579;52.354;16.974;2023-04-08T01:41:08;34.90;;;16.70;;
45863;SDS011;31579;52.354;16.974;2023-04-08T01:46:08;34.90;;;16.70;;
45863;SDS011;31579;52.354;16.974;2023-04-08T01:51:08;35.80;;;17.40;;
45863;SDS011;31579;52.354;16.974;2023-04-08T01:56:08;35.80;;;17.40;;
45863;SDS011;31579;52.354;16.974;2023-04-08T02:01:09;40.40;;;18.70;;
45863;SDS011;31579;52.354;16.974;2023-04-08T02:06:07;40.40;;;18.70;;
45863;SDS011;31579;52.354;16.974;2023-04-08T02:11:08;38.30;;;18.80;;
45863;SDS011;31579;52.354;16.974;2023-04-08T02:16:10;38.30;;;18.80;;
45863;SDS011;31579;52.354;16.974;2023-04-08T02:21:10;43.30;;;18.70;;
45863;SDS011;31579;52.354;16.974;2023-04-08T02:26:15;43.30;;;18.70;;
45863;SDS011;31579;52.354;16.974;2023-04-08T02:31:09;42.30;;;19.50;;
45863;SDS011;31579;52.354;16.974;2023-04-08T02:36:07;42.30;;;19.50;;
45863;SDS011;31579;52.354;16.974;2023-04-08T02:41:08;42.70;;;19.70;;
45863;SDS011;31579;52.354;16.974;2023-04-08T02:46:08;42.70;;;19.70;;
45863;SDS011;31579;52.354;16.974;2023-04-08T02:51:08;44.80;;;19.60;;
45863;SDS011;31579;52.354;16.974;2023-04-08T02:56:09;44.80;;;19.60;;
45863;SDS011;31579;52.354;16.974;2023-04-08T03:01:08;45.20;;;19.70;;
45863;SDS011;31579;52.354;16.974;2023-04-08T03:06:08;45.20;;;19.70;;
45863;SDS011;31579;52.354;16.974;2023-04-08T03:11:08;44.50;;;19.70;;
45863;SDS011;31579;52.354;16.974;2023-04-08T03:14:12;44.50;;;19.70;;
45863;SDS011;31579;52.354;16.974;2023-04-08T03:19:11;55.20;;;22.70;;
45863;SDS011;31579;52.354;16.974;2023-04-08T03:24:11;55.20;;;22.70;;
45863;SDS011;31579;52.354;16.974;2023-04-08T03:29:11;46.30;;;21.40;;
45863;SDS011;31579;52.354;16.974;2023-04-08T03:34:11;46.30;;;21.40;;
45863;SDS011;31579;52.354;16.974;2023-04-08T03:39:11;40.50;;;19.20;;
45863;SDS011;31579;52.354;16.974;2023-04-08T03:44:11;40.50;;;19.20;;
45863;SDS011;31579;52.354;16.974;2023-04-08T03:49:11;46.80;;;21.60;;
45863;SDS011;31579;52.354;16.974;2023-04-08T03:54:11;46.80;;;21.60;;
45863;SDS011;31579;52.354;16.974;2023-04-08T03:59:11;48.00;;;22.10;;
45863;SDS011;31579;52.354;16.974;2023-04-08T04:04:11;48.00;;;22.10;;
45863;SDS011;31579;52.354;16.974;2023-04-08T04:06:58;48.00;;;22.10;;
45863;SDS011;31579;52.354;16.974;2023-04-08T04:11:56;48.00;;;22.10;;
45863;SDS011;31579;52.354;16.974;2023-04-08T04:17:06;48.00;;;22.10;;
45863;SDS011;31579;52.354;16.974;2023-04-08T04:22:04;54.40;;;23.30;;
45863;SDS011;31579;52.354;16.974;2023-04-08T04:27:04;54.40;;;23.30;;
45863;SDS011;31579;52.354;16.974;2023-04-08T04:32:04;55.30;;;24.50;;
45863;SDS011;31579;52.354;16.974;2023-04-08T04:37:04;55.30;;;24.50;;
45863;SDS011;31579;52.354;16.974;2023-04-08T04:42:04;57.90;;;26.60;;
45863;SDS011;31579;52.354;16.974;2023-04-08T04:47:04;57.90;;;26.60;;
45863;SDS011;31579;52.354;16.974;2023-04-08T04:52:04;54.80;;;24.90;;
45863;SDS011;31579;52.354;16.974;2023-04-08T04:57:04;54.80;;;24.90;;
45863;SDS011;31579;52.354;16.974;2023-04-08T05:02:04;61.50;;;26.30;;
45863;SDS011;31579;52.354;16.974;2023-04-08T05:07:04;75.90;;;28.50;;
45863;SDS011;31579;52.354;16.974;2023-04-08T05:12:04;75.90;;;28.50;;
45863;SDS011;31579;52.354;16.974;2023-04-08T05:15:10;75.90;;;28.50;;
45863;SDS011;31579;52.354;16.974;2023-04-08T05:20:09;53.30;;;23.60;;
45863;SDS011;31579;52.354;16.974;2023-04-08T05:25:09;53.30;;;23.60;;
45863;SDS011;31579;52.354;16.974;2023-04-08T05:30:09;48.50;;;22.70;;
45863;SDS011;31579;52.354;16.974;2023-04-08T05:35:09;48.50;;;22.70;;
45863;SDS011;31579;52.354;16.974;2023-04-08T05:40:09;56.00;;;24.90;;
45863;SDS011;31579;52.354;16.974;2023-04-08T05:45:09;56.00;;;24.90;;
45863;SDS011;31579;52.354;16.974;2023-04-08T05:50:09;49.00;;;23.30;;
45863;SDS011;31579;52.354;16.974;2023-04-08T05:55:09;49.00;;;23.30;;
45863;SDS011;31579;52.354;16.974;2023-04-08T06:00:09;43.20;;;22.00;;
45863;SDS011;31579;52.354;16.974;2023-04-08T06:05:08;43.20;;;22.00;;
45863;SDS011;31579;52.354;16.974;2023-04-08T06:10:09;46.00;;;23.50;;
45863;SDS011;31579;52.354;16.974;2023-04-08T06:15:08;46.00;;;23.50;;
45863;SDS011;31579;52.354;16.974;2023-04-08T06:20:08;41.70;;;22.50;;
45863;SDS011;31579;52.354;16.974;2023-04-08T06:25:08;41.70;;;22.50;;
45863;SDS011;31579;52.354;16.974;2023-04-08T06:30:09;45.30;;;24.10;;
45863;SDS011;31579;52.354;16.974;2023-04-08T06:35:19;45.30;;;24.10;;
45863;SDS011;31579;52.354;16.974;2023-04-08T06:40:17;40.90;;;22.50;;
45863;SDS011;31579;52.354;16.974;2023-04-08T06:45:17;40.90;;;22.50;;
45863;SDS011;31579;52.354;16.974;2023-04-08T06:50:17;41.60;;;21.30;;
45863;SDS011;31579;52.354;16.974;2023-04-08T06:55:17;41.60;;;21.30;;
45863;SDS011;31579;52.354;16.974;2023-04-08T07:00:17;38.80;;;20.50;;
45863;SDS011;31579;52.354;16.974;2023-04-08T07:05:17;38.80;;;20.50;;
45863;SDS011;31579;52.354;16.974;2023-04-08T07:10:17;36.20;;;19.70;;
45863;SDS011;31579;52.354;16.974;2023-04-08T07:15:17;36.20;;;19.70;;
45863;SDS011;31579;52.354;16.974;2023-04-08T07:20:18;39.50;;;20.80;;
45863;SDS011;31579;52.354;16.974;2023-04-08T07:25:17;39.50;;;20.80;;
45863;SDS011;31579;52.354;16.974;2023-04-08T07:30:17;33.20;;;19.50;;
45863;SDS011;31579;52.354;16.974;2023-04-08T07:35:18;33.20;;;19.50;;
45863;SDS011;31579;52.354;16.974;2023-04-08T07:40:17;32.80;;;18.70;;
45863;SDS011;31579;52.354;16.974;2023-04-08T07:45:17;32.80;;;18.70;;
45863;SDS011;31579;52.354;16.974;2023-04-08T07:50:17;32.60;;;19.00;;
45863;SDS011;31579;52.354;16.974;2023-04-08T07:55:17;32.60;;;19.00;;
45863;SDS011;31579;52.354;16.974;2023-04-08T08:00:17;29.40;;;17.60;;
45863;SDS011;31579;52.354;16.974;2023-04-08T08:05:17;29.40;;;17.60;;
45863;SDS011;31579;52.354;16.974;2023-04-08T08:10:28;30.00;;;18.30;;
45863;SDS011;31579;52.354;16.974;2023-04-08T08:15:26;30.00;;;18.30;;
45863;SDS011;31579;52.354;16.974;2023-04-08T08:20:26;31.30;;;18.50;;
45863;SDS011;31579;52.354;16.974;2023-04-08T08:25:26;31.30;;;18.50;;
45863;SDS011;31579;52.354;16.974;2023-04-08T08:30:26;31.60;;;17.90;;
45863;SDS011;31579;52.354;16.974;2023-04-08T08:35:26;31.60;;;17.90;;
45863;SDS011;31579;52.354;16.974;2023-04-08T08:40:28;30.10;;;18.40;;
45863;SDS011;31579;52.354;16.974;2023-04-08T08:45:26;30.10;;;18.40;;
45863;SDS011;31579;52.354;16.974;2023-04-08T08:50:26;29.20;;;17.10;;
45863;SDS011;31579;52.354;16.974;2023-04-08T08:55:31;29.20;;;17.10;;
45863;SDS011;31579;52.354;16.974;2023-04-08T09:00:34;33.50;;;19.10;;
45863;SDS011;31579;52.354;16.974;2023-04-08T09:05:29;33.50;;;19.10;;
45863;SDS011;31579;52.354;16.974;2023-04-08T09:10:29;30.00;;;18.50;;
45863;SDS011;31579;52.354;16.974;2023-04-08T09:15:29;30.00;;;18.50;;
45863;SDS011;31579;52.354;16.974;2023-04-08T09:20:29;30.80;;;18.20;;
45863;SDS011;31579;52.354;16.974;2023-04-08T09:25:32;30.80;;;18.20;;
45863;SDS011;31579;52.354;16.974;2023-04-08T09:30:29;30.20;;;19.10;;
45863;SDS011;31579;52.354;16.974;2023-04-08T09:35:29;30.20;;;19.10;;
45863;SDS011;31579;52.354;16.974;2023-04-08T09:40:32;33.70;;;20.80;;
45863;SDS011;31579;52.354;16.974;2023-04-08T09:45:29;33.70;;;20.80;;
45863;SDS011;31579;52.354;16.974;2023-04-08T09:50:31;32.50;;;19.90;;
45863;SDS011;31579;52.354;16.974;2023-04-08T09:55:29;32.50;;;19.90;;
45863;SDS011;31579;52.354;16.974;2023-04-08T10:00:33;32.60;;;20.60;;
45863;SDS011;31579;52.354;16.974;2023-04-08T10:05:29;32.60;;;20.60;;
45863;SDS011;31579;52.354;16.974;2023-04-08T10:10:29;35.20;;;21.20;;
45863;SDS011;31579;52.354;16.974;2023-04-08T10:15:30;35.20;;;21.20;;
45863;SDS011;31579;52.354;16.974;2023-04-08T10:24:08;36.10;;;22.10;;
45863;SDS011;31579;52.354;16.974;2023-04-08T10:39:05;28.90;;;18.20;;
45863;SDS011;31579;52.354;16.974;2023-04-08T10:44:13;28.90;;;18.20;;
45863;SDS011;31579;52.354;16.974;2023-04-08T10:49:05;27.40;;;17.80;;
45863;SDS011;31579;52.354;16.974;2023-04-08T10:54:08;27.40;;;17.80;;
45863;SDS011;31579;52.354;16.974;2023-04-08T10:59:05;32.30;;;18.30;;
45863;SDS011;31579;52.354;16.974;2023-04-08T11:04:06;32.30;;;18.30;;
45863;SDS011;31579;52.354;16.974;2023-04-08T11:09:06;30.40;;;19.10;;
45863;SDS011;31579;52.354;16.974;2023-04-08T11:11:13;30.40;;;19.10;;
45863;SDS011;31579;52.354;16.974;2023-04-08T11:16:12;30.40;;;19.10;;
45863;SDS011;31579;52.354;16.974;2023-04-08T11:21:12;30.00;;;19.10;;
45863;SDS011;31579;52.354;16.974;2023-04-08T11:26:12;30.00;;;19.10;;
45863;SDS011;31579;52.354;16.974;2023-04-08T11:31:12;30.30;;;18.90;;
45863;SDS011;31579;52.354;16.974;2023-04-08T11:36:12;30.30;;;18.90;;
45863;SDS011;31579;52.354;16.974;2023-04-08T11:41:13;28.10;;;17.70;;
45863;SDS011;31579;52.354;16.974;2023-04-08T11:46:11;28.10;;;17.70;;
45863;SDS011;31579;52.354;16.974;2023-04-08T11:51:11;25.40;;;16.90;;
45863;SDS011;31579;52.354;16.974;2023-04-08T12:01:11;26.10;;;16.90;;
45863;SDS011;31579;52.354;16.974;2023-04-08T12:06:11;26.10;;;16.90;;
45863;SDS011;31579;52.354;16.974;2023-04-08T12:11:12;27.60;;;17.70;;
45863;SDS011;31579;52.354;16.974;2023-04-08T12:16:11;27.60;;;17.70;;
45863;SDS011;31579;52.354;16.974;2023-04-08T12:21:11;27.00;;;17.20;;
45863;SDS011;31579;52.354;16.974;2023-04-08T12:26:11;27.00;;;17.20;;
45863;SDS011;31579;52.354;16.974;2023-04-08T12:31:11;23.80;;;16.50;;
45863;SDS011;31579;52.354;16.974;2023-04-08T12:36:11;23.80;;;16.50;;
45863;SDS011;31579;52.354;16.974;2023-04-08T12:41:11;24.80;;;16.30;;
45863;SDS011;31579;52.354;16.974;2023-04-08T12:46:11;24.80;;;16.30;;
45863;SDS011;31579;52.354;16.974;2023-04-08T12:51:11;21.60;;;14.70;;
45863;SDS011;31579;52.354;16.974;2023-04-08T12:56:11;21.60;;;14.70;;
45863;SDS011;31579;52.354;16.974;2023-04-08T13:01:11;21.10;;;14.60;;
45863;SDS011;31579;52.354;16.974;2023-04-08T13:02:31;21.10;;;14.60;;
45863;SDS011;31579;52.354;16.974;2023-04-08T13:07:30;23.00;;;15.80;;
45863;SDS011;31579;52.354;16.974;2023-04-08T13:12:30;23.00;;;15.80;;
45863;SDS011;31579;52.354;16.974;2023-04-08T13:17:34;22.00;;;15.10;;
45863;SDS011;31579;52.354;16.974;2023-04-08T13:22:30;22.00;;;15.10;;
45863;SDS011;31579;52.354;16.974;2023-04-08T13:27:30;21.00;;;14.20;;
45863;SDS011;31579;52.354;16.974;2023-04-08T13:32:30;21.00;;;14.20;;
45863;SDS011;31579;52.354;16.974;2023-04-08T13:37:30;24.50;;;15.90;;
45863;SDS011;31579;52.354;16.974;2023-04-08T13:42:30;24.50;;;15.90;;
45863;SDS011;31579;52.354;16.974;2023-04-08T13:47:30;23.50;;;16.00;;
45863;SDS011;31579;52.354;16.974;2023-04-08T13:52:30;23.50;;;16.00;;
45863;SDS011;31579;52.354;16.974;2023-04-08T13:55:55;23.20;;;15.00;;
45863;SDS011;31579;52.354;16.974;2023-04-08T14:00:53;23.20;;;15.00;;
45863;SDS011;31579;52.354;16.974;2023-04-08T14:05:53;23.20;;;15.00;;
45863;SDS011;31579;52.354;16.974;2023-04-08T14:10:54;23.60;;;15.50;;
45863;SDS011;31579;52.354;16.974;2023-04-08T14:11:07;23.60;;;15.50;;
45863;SDS011;31579;52.354;16.974;2023-04-08T14:14:32;23.60;;;15.50;;
45863;SDS011;31579;52.354;16.974;2023-04-08T14:19:31;24.10;;;15.50;;
45863;SDS011;31579;52.354;16.974;2023-04-08T14:24:31;24.10;;;15.50;;
45863;SDS011;31579;52.354;16.974;2023-04-08T14:29:31;21.10;;;13.80;;
45863;SDS011;31579;52.354;16.974;2023-04-08T14:34:31;21.10;;;13.80;;
45863;SDS011;31579;52.354;16.974;2023-04-08T14:37:05;20.30;;;13.80;;
45863;SDS011;31579;52.354;16.974;2023-04-08T14:42:14;20.30;;;13.80;;
45863;SDS011;31579;52.354;16.974;2023-04-08T14:47:12;22.30;;;14.40;;
45863;SDS011;31579;52.354;16.974;2023-04-08T14:52:12;22.30;;;14.40;;
45863;SDS011;31579;52.354;16.974;2023-04-08T14:57:16;21.70;;;14.00;;
45863;SDS011;31579;52.354;16.974;2023-04-08T14:58:27;21.70;;;14.00;;
45863;SDS011;31579;52.354;16.974;2023-04-08T15:03:25;21.70;;;14.00;;
45863;SDS011;31579;52.354;16.974;2023-04-08T15:07:04;19.40;;;13.60;;
45863;SDS011;31579;52.354;16.974;2023-04-08T15:12:02;19.40;;;13.60;;
45863;SDS011;31579;52.354;16.974;2023-04-08T15:17:02;22.20;;;15.00;;
45863;SDS011;31579;52.354;16.974;2023-04-08T15:22:02;22.20;;;15.00;;
45863;SDS011;31579;52.354;16.974;2023-04-08T15:27:02;21.90;;;13.90;;
45863;SDS011;31579;52.354;16.974;2023-04-08T15:32:02;21.90;;;13.90;;
45863;SDS011;31579;52.354;16.974;2023-04-08T15:37:05;20.90;;;14.20;;
45863;SDS011;31579;52.354;16.974;2023-04-08T15:42:02;20.90;;;14.20;;
45863;SDS011;31579;52.354;16.974;2023-04-08T15:47:02;21.40;;;14.40;;
45863;SDS011;31579;52.354;16.974;2023-04-08T15:52:03;21.40;;;14.40;;
45863;SDS011;31579;52.354;16.974;2023-04-08T15:57:02;21.30;;;13.50;;
45863;SDS011;31579;52.354;16.974;2023-04-08T16:02:02;21.30;;;13.50;;
45863;SDS011;31579;52.354;16.974;2023-04-08T16:07:02;22.00;;;14.70;;
45863;SDS011;31579;52.354;16.974;2023-04-08T16:12:02;22.00;;;14.70;;
45863;SDS011;31579;52.354;16.974;2023-04-08T16:17:02;22.40;;;14.20;;
45863;SDS011;31579;52.354;16.974;2023-04-08T16:22:02;22.40;;;14.20;;
45863;SDS011;31579;52.354;16.974;2023-04-08T16:27:03;23.70;;;14.50;;
45863;SDS011;31579;52.354;16.974;2023-04-08T16:32:02;23.70;;;14.50;;
45863;SDS011;31579;52.354;16.974;2023-04-08T16:37:02;23.50;;;15.90;;
45863;SDS011;31579;52.354;16.974;2023-04-08T16:42:02;23.50;;;15.90;;
45863;SDS011;31579;52.354;16.974;2023-04-08T16:47:02;23.60;;;15.80;;
45863;SDS011;31579;52.354;16.974;2023-04-08T16:52:02;23.60;;;15.80;;
45863;SDS011;31579;52.354;16.974;2023-04-08T16:57:07;24.20;;;15.70;;
45863;SDS011;31579;52.354;16.974;2023-04-08T17:02:02;24.20;;;15.70;;
45863;SDS011;31579;52.354;16.974;2023-04-08T17:07:02;22.30;;;14.50;;
45863;SDS011;31579;52.354;16.974;2023-04-08T17:12:04;22.30;;;14.50;;
45863;SDS011;31579;52.354;16.974;2023-04-08T17:17:02;24.70;;;15.30;;
45863;SDS011;31579;52.354;16.974;2023-04-08T17:22:03;24.70;;;15.30;;
45863;SDS011;31579;52.354;16.974;2023-04-08T17:27:03;24.20;;;15.10;;
45863;SDS011;31579;52.354;16.974;2023-04-08T17:32:03;24.20;;;15.10;;
45863;SDS011;31579;52.354;16.974;2023-04-08T17:37:02;26.80;;;15.80;;
45863;SDS011;31579;52.354;16.974;2023-04-08T17:42:02;26.80;;;15.80;;
45863;SDS011;31579;52.354;16.974;2023-04-08T17:46:13;29.30;;;17.50;;
45863;SDS011;31579;52.354;16.974;2023-04-08T17:51:12;29.30;;;17.50;;
45863;SDS011;31579;52.354;16.974;2023-04-08T17:53:56;29.30;;;17.50;;
45863;SDS011;31579;52.354;16.974;2023-04-08T17:55:07;29.30;;;17.50;;
45863;SDS011;31579;52.354;16.974;2023-04-08T18:00:06;29.30;;;17.50;;
45863;SDS011;31579;52.354;16.974;2023-04-08T18:05:06;29.30;;;17.50;;
45863;SDS011;31579;52.354;16.974;2023-04-08T18:10:06;27.20;;;16.60;;
45863;SDS011;31579;52.354;16.974;2023-04-08T18:15:06;27.20;;;16.60;;
45863;SDS011;31579;52.354;16.974;2023-04-08T18:20:06;28.20;;;18.10;;
45863;SDS011;31579;52.354;16.974;2023-04-08T18:25:06;28.20;;;18.10;;
45863;SDS011;31579;52.354;16.974;2023-04-08T18:30:06;29.80;;;17.50;;
45863;SDS011;31579;52.354;16.974;2023-04-08T18:35:06;29.80;;;17.50;;
45863;SDS011;31579;52.354;16.974;2023-04-08T18:40:06;31.50;;;18.70;;
45863;SDS011;31579;52.354;16.974;2023-04-08T18:45:06;31.50;;;18.70;;
45863;SDS011;31579;52.354;16.974;2023-04-08T18:50:06;33.40;;;19.50;;
45863;SDS011;31579;52.354;16.974;2023-04-08T18:55:06;33.40;;;19.50;;
45863;SDS011;31579;52.354;16.974;2023-04-08T19:01:05;32.50;;;19.30;;
45863;SDS011;31579;52.354;16.974;2023-04-08T19:06:26;37.20;;;21.20;;
45863;SDS011;31579;52.354;16.974;2023-04-08T19:11:25;37.20;;;21.20;;
45863;SDS011;31579;52.354;16.974;2023-04-08T19:16:25;37.30;;;21.60;;
45863;SDS011;31579;52.354;16.974;2023-04-08T19:21:25;37.30;;;21.60;;
45863;SDS011;31579;52.354;16.974;2023-04-08T19:26:25;45.00;;;25.20;;
45863;SDS011;31579;52.354;16.974;2023-04-08T19:31:25;45.00;;;25.20;;
45863;SDS011;31579;52.354;16.974;2023-04-08T19:36:28;44.50;;;24.70;;
45863;SDS011;31579;52.354;16.974;2023-04-08T19:41:25;44.50;;;24.70;;
45863;SDS011;31579;52.354;16.974;2023-04-08T19:46:26;39.00;;;21.70;;
45863;SDS011;31579;52.354;16.974;2023-04-08T19:51:25;39.00;;;21.70;;
45863;SDS011;31579;52.354;16.974;2023-04-08T19:56:25;42.60;;;24.00;;
45863;SDS011;31579;52.354;16.974;2023-04-08T20:01:25;42.60;;;24.00;;
45863;SDS011;31579;52.354;16.974;2023-04-08T20:02:04;42.60;;;24.00;;
45863;SDS011;31579;52.354;16.974;2023-04-08T20:03:22;42.60;;;24.00;;
45863;SDS011;31579;52.354;16.974;2023-04-08T20:08:19;42.80;;;24.40;;
45863;SDS011;31579;52.354;16.974;2023-04-08T20:13:19;42.80;;;24.40;;
45863;SDS011;31579;52.354;16.974;2023-04-08T20:18:19;46.60;;;25.60;;
45863;SDS011;31579;52.354;16.974;2023-04-08T20:23:19;46.60;;;25.60;;
45863;SDS011;31579;52.354;16.974;2023-04-08T20:28:19;41.90;;;23.80;;
45863;SDS011;31579;52.354;16.974;2023-04-08T20:33:20;41.90;;;23.80;;
45863;SDS011;31579;52.354;16.974;2023-04-08T20:38:19;53.90;;;28.80;;
45863;SDS011;31579;52.354;16.974;2023-04-08T20:43:19;53.90;;;28.80;;
45863;SDS011;31579;52.354;16.974;2023-04-08T20:48:21;47.20;;;25.40;;
45863;SDS011;31579;52.354;16.974;2023-04-08T20:50:30;47.20;;;25.40;;
45863;SDS011;31579;52.354;16.974;2023-04-08T20:55:28;47.20;;;25.40;;
45863;SDS011;31579;52.354;16.974;2023-04-08T21:00:28;56.70;;;29.10;;
45863;SDS011;31579;52.354;16.974;2023-04-08T21:05:28;56.70;;;29.10;;
45863;SDS011;31579;52.354;16.974;2023-04-08T21:10:28;62.20;;;30.30;;
45863;SDS011;31579;52.354;16.974;2023-04-08T21:15:28;62.20;;;30.30;;
45863;SDS011;31579;52.354;16.974;2023-04-08T21:20:32;52.60;;;26.60;;
45863;SDS011;31579;52.354;16.974;2023-04-08T21:25:29;52.60;;;26.60;;
45863;SDS011;31579;52.354;16.974;2023-04-08T21:29:04;57.70;;;31.60;;
45863;SDS011;31579;52.354;16.974;2023-04-08T21:34:02;57.70;;;31.60;;
45863;SDS011;31579;52.354;16.974;2023-04-08T21:39:03;78.30;;;40.80;;
45863;SDS011;31579;52.354;16.974;2023-04-08T21:44:02;78.30;;;40.80;;
45863;SDS011;31579;52.354;16.974;2023-04-08T21:49:02;74.30;;;38.70;;
45863;SDS011;31579;52.354;16.974;2023-04-08T21:54:02;74.30;;;38.70;;
45863;SDS011;31579;52.354;16.974;2023-04-08T21:59:06;66.60;;;35.90;;
45863;SDS011;31579;52.354;16.974;2023-04-08T22:04:03;66.60;;;35.90;;
45863;SDS011;31579;52.354;16.974;2023-04-08T22:09:02;65.20;;;33.40;;
45863;SDS011;31579;52.354;16.974;2023-04-08T22:14:02;65.20;;;33.40;;
45863;SDS011;31579;52.354;16.974;2023-04-08T22:19:02;70.90;;;35.60;;
45863;SDS011;31579;52.354;16.974;2023-04-08T22:24:02;70.90;;;35.60;;
45863;SDS011;31579;52.354;16.974;2023-04-08T22:29:02;70.50;;;34.70;;
45863;SDS011;31579;52.354;16.974;2023-04-08T22:34:02;70.50;;;34.70;;
45863;SDS011;31579;52.354;16.974;2023-04-08T22:39:02;66.30;;;35.20;;
45863;SDS011;31579;52.354;16.974;2023-04-08T22:44:02;66.30;;;35.20;;
45863;SDS011;31579;52.354;16.974;2023-04-08T22:49:02;66.80;;;35.00;;
45863;SDS011;31579;52.354;16.974;2023-04-08T22:54:02;66.80;;;35.00;;
45863;SDS011;31579;52.354;16.974;2023-04-08T22:59:02;58.20;;;32.00;;
45863;SDS011;31579;52.354;16.974;2023-04-08T23:04:06;58.20;;;32.00;;
45863;SDS011;31579;52.354;16.974;2023-04-08T23:09:02;57.40;;;30.90;;
45863;SDS011;31579;52.354;16.974;2023-04-08T23:13:39;57.40;;;30.90;;
45863;SDS011;31579;52.354;16.974;2023-04-08T23:18:38;56.00;;;31.10;;
45863;SDS011;31579;52.354;16.974;2023-04-08T23:23:38;56.00;;;31.10;;
45863;SDS011;31579;52.354;16.974;2023-04-08T23:28:41;56.20;;;29.80;;
45863;SDS011;31579;52.354;16.974;2023-04-08T23:33:38;56.20;;;29.80;;
45863;SDS011;31579;52.354;16.974;2023-04-08T23:38:38;51.50;;;28.70;;
45863;SDS011;31579;52.354;16.974;2023-04-08T23:43:38;51.50;;;28.70;;
45863;SDS011;31579;52.354;16.974;2023-04-08T23:48:38;54.30;;;29.60;;
45863;SDS011;31579;52.354;16.974;2023-04-08T23:53:38;54.30;;;29.60;;
45863;SDS011;31579;52.354;16.974;2023-04-08T23:58:38;53.60;;;29.30;;
